Sarah Desgagnes — XJAB — position and weather

sailwx.info

Track history (hours):
 
Tides and Currents Weather Stations Pressure Air Temp Water Temp Dewpoint Dewpoint Depression Visibility Wind Speed Wind Dir Waves Ship Positions

Sarah Desgagnes

Last reported at 2017-Mar-27 06:00 UTC. Time now 2017-Mar-27 06:37 UTC.
Position N 46°06' W 073°06'.

Length 147 m; draft 6.3 m.

Type: Ship. MMSI: 316012308.

Wind from 050 at 13 knots

Air temperature -0.8 ° C
Dewpoint -2.6 ° C
Water temperature 1.7 ° C

Date/timePositionNaut miles runAvg speedWind from/ knotsBaromVisibWave heightAir tempDewpointWater temp
2017-Mar-27 06:00N 46°06' W 073°06'1514.6 050 / 13 -0.8-2.6 1.7
2017-Mar-27 05:00N 45°54' W 073°18'1514.6 040 / 11 -0.8-2.3 1.7
2017-Mar-27 04:00N 45°42' W 073°30'6 6.0 060 / 10 -0.4-3.4 1.6
2017-Mar-27 03:00N 45°36' W 073°30'0 0.0 050 / 11 -0.7-5.0
2017-Mar-27 02:00N 45°36' W 073°30'0 0.0 040 / 6 -0.0-6.9
2017-Mar-27 01:00N 45°36' W 073°30'0 0.0 050 / 9 -0.2-7.6
2017-Mar-27 00:00N 45°36' W 073°30'0 0.0 050 / 8 -0.2-7.4
2017-Mar-26 23:00N 45°36' W 073°30'0 0.0 060 / 7 -0.1-7.8
2017-Mar-26 22:00N 45°36' W 073°30'0 0.0 050 / 11 -0.0-10.4
2017-Mar-26 21:00N 45°36' W 073°30'0 0.0 050 / 10 -0.2-10.0
2017-Mar-26 20:00N 45°36' W 073°30'0 0.0 040 / 15 -0.4-11.4
2017-Mar-26 19:00N 45°36' W 073°30'0 0.0 040 / 10 0.5-11.4
2017-Mar-26 18:00N 45°36' W 073°30'0 0.0 040 / 13 -1.6-12.8
2017-Mar-26 17:00N 45°36' W 073°30'0 0.0 040 / 6 -1.7-11.4
2017-Mar-26 16:00N 45°36' W 073°30'0 0.0 040 / 12 -3.5-13.8
2017-Mar-26 15:00N 45°36' W 073°30'0 0.0 040 / 14 -4.4-13.9
2017-Mar-26 14:00N 45°36' W 073°30'0 0.0 050 / 7 -3.5-12.9
2017-Mar-26 13:00N 45°36' W 073°30'0 0.0 050 / 9 -4.8-13.4
2017-Mar-26 12:00N 45°36' W 073°30'0 0.0 040 / 12 -6.0-14.9
2017-Mar-26 11:00N 45°36' W 073°30'0 0.0 050 / 8 -5.6-13.5
2017-Mar-26 10:00N 45°36' W 073°30'0 0.0 040 / 9 -5.0-13.6
2017-Mar-26 09:00N 45°36' W 073°30'0 0.0 040 / 7 -4.0-12.8
2017-Mar-26 08:00N 45°36' W 073°30'0 0.0 040 / 4 -3.6-11.7
2017-Mar-26 07:00N 45°36' W 073°30'0 0.0 040 / 2 -3.8-10.6
2017-Mar-26 06:00N 45°36' W 073°30'0 0.0 040 / 5 -3.7-8.0
2017-Mar-26 05:00N 45°36' W 073°30'0 0.0 020 / 5 -2.2-6.9
2017-Mar-26 04:00N 45°36' W 073°30'0 0.0 -2.3-5.9
2017-Mar-26 02:00N 45°36' W 073°30'0 0.0 -1.3-8.9
2017-Mar-26 01:00N 45°36' W 073°30'0 0.0 190 / 4 -0.5-8.2
2017-Mar-26 00:00N 45°36' W 073°30'0 0.0 180 / 6 0.1-8.9
2017-Mar-25 23:00N 45°36' W 073°30'0 0.0 190 / 3 1.8-10.2
2017-Mar-25 22:00N 45°36' W 073°30'0 0.0 030 / 2 3.8-11.8
2017-Mar-25 21:00N 45°36' W 073°30'0 0.0 040 / 2 3.7-12.8
2017-Mar-25 20:00N 45°36' W 073°30'0 0.0 050 / 2 3.6-11.7
2017-Mar-25 19:00N 45°36' W 073°30'0 0.0 4.5-8.1
2017-Mar-25 18:00N 45°36' W 073°30'0 0.0 050 / 5 1.7-9.3
2017-Mar-25 17:00N 45°36' W 073°30'0 0.0 050 / 4 0.7-6.6
2017-Mar-25 16:00N 45°36' W 073°30'0 0.0 040 / 11 -0.6-7.4
2017-Mar-25 15:00N 45°36' W 073°30'0 0.0 030 / 9 -0.1-7.5
2017-Mar-25 14:00N 45°36' W 073°30'0 0.0 020 / 5 1.2-3.5
2017-Mar-25 13:00N 45°36' W 073°30'0 0.0 040 / 6 -0.7-2.2
2017-Mar-25 12:00N 45°36' W 073°30'0 0.0 310 / 2 -0.8-2.1
2017-Mar-25 11:00N 45°36' W 073°30'0 0.0 -1.3-2.3
2017-Mar-25 10:00N 45°36' W 073°30'0 0.0 290 / 2 -1.5-2.1
2017-Mar-25 09:00N 45°36' W 073°30'0 0.0 280 / 2 -1.3-2.0
2017-Mar-25 08:00N 45°36' W 073°30'0 0.0 240 / 1 -0.9-1.6
2017-Mar-25 07:00N 45°36' W 073°30'0 0.0 300 / 1 -0.5-1.0
2017-Mar-25 06:00N 45°36' W 073°30'0 0.0 270 / 2 -0.2-0.6
2017-Mar-25 05:00N 45°36' W 073°30'0 0.0 240 / 1 -0.3-0.6
2017-Mar-25 04:00N 45°36' W 073°30'0 0.0 310 / 2 -0.3-0.6
2017-Mar-25 03:00N 45°36' W 073°30'0 0.0 290 / 2 -0.3-0.5
2017-Mar-25 02:00N 45°36' W 073°30'0 0.0 310 / 1 -0.0-0.1
2017-Mar-25 01:00N 45°36' W 073°30'0 0.0 340 / 2 0.1-0.0
2017-Mar-25 00:00N 45°36' W 073°30'0 0.0 040 / 4 -0.6-0.8
2017-Mar-24 23:00N 45°36' W 073°30'0 0.0 -0.4-0.5
2017-Mar-24 22:00N 45°36' W 073°30'0 0.0 170 / 4 -0.7-0.9
2017-Mar-24 21:00N 45°36' W 073°30'0 0.0 180 / 7 -0.8-1.2
2017-Mar-24 20:00N 45°36' W 073°30'0 0.0 170 / 11 -0.9-1.8
2017-Mar-24 19:00N 45°36' W 073°30'0 0.0 170 / 13 -0.4-2.8
2017-Mar-24 18:00N 45°36' W 073°30'0 0.0 180 / 12 0.1-2.5
2017-Mar-24 17:00N 45°36' W 073°30'0 0.0 180 / 12 -0.5-2.1
2017-Mar-24 16:00N 45°36' W 073°30'0 0.0 180 / 12 -1.0-2.4
2017-Mar-24 15:00N 45°36' W 073°30'0 0.0 170 / 11 -1.9-3.0
2017-Mar-24 14:00N 45°36' W 073°30'0 0.0 170 / 11 -2.1-3.8 1.6
2017-Mar-24 13:00N 45°36' W 073°30'0 0.0 120 / 5 -1.5-6.6
2017-Mar-24 12:00N 45°36' W 073°30'0 0.0 180 / 6 -2.3-4.7
2017-Mar-24 11:00N 45°36' W 073°30'0 0.0 190 / 13 -1.4-8.6
2017-Mar-24 10:00N 45°36' W 073°30'0 0.0 180 / 13 -1.7-9.8
2017-Mar-24 09:00N 45°36' W 073°30'0 0.0 170 / 6 -1.8-10.5
2017-Mar-24 08:00N 45°36' W 073°30'0 0.0 190 / 7 -1.7-9.6
2017-Mar-24 07:00N 45°36' W 073°30'0 0.0 190 / 9 -1.5-9.9
2017-Mar-24 06:00N 45°36' W 073°30'0 0.0 190 / 11 -1.2-9.4
2017-Mar-24 05:00N 45°36' W 073°30'0 0.0 220 / 8 -0.3-10.1
2017-Mar-24 04:00N 45°36' W 073°30'0 0.0 240 / 9 0.1-10.7
2017-Mar-24 03:00N 45°36' W 073°30'0 0.0 220 / 5 0.3-13.7
2017-Mar-24 02:00N 45°36' W 073°30'0 0.0 230 / 7 0.1-14.6
2017-Mar-24 01:00N 45°36' W 073°30'0 0.0 240 / 8 -0.0-14.4
2017-Mar-24 00:00N 45°36' W 073°30'0 0.0 250 / 10 0.1-14.5
2017-Mar-23 23:00N 45°36' W 073°30'0 0.0 250 / 9 0.7-15.2
2017-Mar-23 22:00N 45°36' W 073°30'0 0.0 240 / 11 1.0-15.1
2017-Mar-23 21:00N 45°36' W 073°30'0 0.0 260 / 10 0.5-14.7
2017-Mar-23 20:00N 45°36' W 073°30'0 0.0 250 / 11 -0.4-15.7
2017-Mar-23 19:00N 45°36' W 073°30'0 0.0 260 / 11 -1.4-16.0
2017-Mar-23 18:00N 45°36' W 073°30'0 0.0 270 / 13 -2.3-16.5
2017-Mar-23 17:00N 45°36' W 073°30'0 0.0 300 / 2 1.2-14.8
2017-Mar-23 16:00N 45°36' W 073°30'0 0.0 300 / 13 -4.5-17.5
2017-Mar-23 15:00N 45°36' W 073°30'0 0.0 -5.6-18.0
2017-Mar-23 14:00N 45°36' W 073°30'0 0.0 -7.4-17.6
2017-Mar-23 13:00N 45°36' W 073°30'0 0.0 -8.8-18.4
2017-Mar-23 12:00N 45°36' W 073°30'0 0.0 -9.8-18.3
2017-Mar-23 11:00N 45°36' W 073°30'0 0.0 -10.4-18.9
2017-Mar-23 10:00N 45°36' W 073°30'0 0.0 -10.5-19.1
2017-Mar-23 09:00N 45°36' W 073°30'0 0.0 -9.8-19.5
2017-Mar-23 08:00N 45°36' W 073°30'0 0.0 -9.4-18.9
2017-Mar-23 07:00N 45°36' W 073°30'0 0.0 -9.2-19.9
2017-Mar-23 06:00N 45°36' W 073°30'0 0.0 -9.4-19.7
2017-Mar-23 05:00N 45°36' W 073°30'0 0.0 -9.1-19.8
2017-Mar-23 04:00N 45°36' W 073°30'0 0.0 -9.0-20.2 0.9
2017-Mar-23 03:00N 45°36' W 073°30'0 0.0 -8.6-20.3 1.4
2017-Mar-23 02:00N 45°36' W 073°30'7 7.3 280 / 2 -7.9-19.9 1.8
2017-Mar-23 01:00N 45°42' W 073°24'1312.7 020 / 8 -8.0-18.8 1.6
2017-Mar-23 00:00N 45°54' W 073°18'7 7.3 020 / 8 -7.3-18.5 1.5
2017-Mar-22 23:00N 46°00' W 073°12'1413.9 040 / 8 -7.3-19.0 1.7
2017-Mar-22 22:00N 46°06' W 072°54'7 7.3 360 / 11 -6.8-18.4 1.7
2017-Mar-22 21:00N 46°12' W 072°48'1413.8 040 / 10 -7.8-19.1 1.7
2017-Mar-22 20:00N 46°18' W 072°30'7 7.3 020 / 7 -8.0-21.5 1.6
2017-Mar-22 19:00N 46°24' W 072°24'1010.2 050 / 8 -9.3-22.0 1.8
2017-Mar-22 18:00N 46°30' W 072°12'1413.8 030 / 9 -10.3-21.1 1.8
2017-Mar-22 17:00N 46°36' W 071°54'7 7.3 030 / 9 -10.9-20.0 1.7
2017-Mar-22 16:00N 46°42' W 071°48'1212.3 110 / 9 -11.7-20.8 1.5
2017-Mar-22 15:00N 46°42' W 071°30'1413.7 060 / 9 -11.6-20.5 1.4
2017-Mar-22 14:00N 46°48' W 071°12'0 0.0 010 / 101016.8 -11.4-17.5 1.7
2017-Mar-22 13:00N 46°48' W 071°12'0 0.0 1015.4 -11.4-14.3
2017-Mar-22 12:00N 46°48' W 071°12'0 0.0 1013.7 -11.3-12.5
2017-Mar-22 11:00N 46°48' W 071°12'0 0.0 1011.7 -10.6-11.0
2017-Mar-22 10:00N 46°48' W 071°12'0 0.0 1009.2 -9.2-9.3
2017-Mar-22 09:00N 46°48' W 071°12'0 0.0 1006.1 -6.7-10.1
2017-Mar-22 08:00N 46°48' W 071°12'0 0.0 1004.8 -3.7-8.9
2017-Mar-22 07:00N 46°48' W 071°12'0 0.0 1004.0 0.3 0.3
2017-Mar-22 06:00N 46°48' W 071°12'0 0.0 1004.6 0.9 0.8
2017-Mar-22 05:00N 46°48' W 071°12'0 0.0 1005.3 0.5 0.4
2017-Mar-22 04:00N 46°48' W 071°12'0 0.0 1005.6 1.3 0.4
2017-Mar-22 03:00N 46°48' W 071°12'0 0.0 1006.6 2.0-0.5
2017-Mar-22 02:00N 46°48' W 071°12'0 0.0 1007.1 2.9-1.4
2017-Mar-22 01:00N 46°48' W 071°12'0 0.0 1007.2 3.9-3.0
2017-Mar-22 00:00N 46°48' W 071°12'0 0.0 1006.9 5.0-4.4
2017-Mar-21 23:00N 46°48' W 071°12'0 0.0 1006.3 3.5-4.4
2017-Mar-21 22:00N 46°48' W 071°12'0 0.0 1006.1 6.1-10.4
2017-Mar-21 21:00N 46°48' W 071°12'0 0.0 1006.4 5.7-7.9
2017-Mar-21 20:00N 46°48' W 071°12'0 0.0 1006.9 4.4-6.2
2017-Mar-21 19:00N 46°48' W 071°12'0 0.0 1007.6 4.2-6.6
2017-Mar-21 18:00N 46°48' W 071°12'0 0.0 1008.5 6.6-6.2
2017-Mar-21 17:00N 46°48' W 071°12'0 0.0 1009.3 4.8-5.9
2017-Mar-21 16:00N 46°48' W 071°12'0 0.0 1010.1 4.0-4.7
2017-Mar-21 15:00N 46°48' W 071°12'0 0.0 1011.0 5.4-3.8
2017-Mar-21 14:00N 46°48' W 071°12'0 0.0 1011.5 1.6-1.1
2017-Mar-21 13:00N 46°48' W 071°12'0 0.0 1011.6 1.3-1.7
2017-Mar-21 12:00N 46°48' W 071°12'0 0.0 1011.9 1.3-4.2
2017-Mar-21 11:00N 46°48' W 071°12'0 0.0 1011.8 1.2-4.3
2017-Mar-21 10:00N 46°48' W 071°12'0 0.0 1011.8 1.4-4.5
2017-Mar-21 09:00N 46°48' W 071°12'0 0.0 1011.7 1.7-5.4
2017-Mar-21 08:00N 46°48' W 071°12'0 0.0 1011.8 1.9-5.4
2017-Mar-21 07:00N 46°48' W 071°12'0 0.0 1011.9 2.3-5.8
2017-Mar-21 06:00N 46°48' W 071°12'0 0.0 1012.2 2.4-6.2
2017-Mar-21 05:00N 46°48' W 071°12'0 0.0 1012.6 2.7-6.4
2017-Mar-21 04:00N 46°48' W 071°12'0 0.0 1013.1 2.8-6.6
2017-Mar-21 03:00N 46°48' W 071°12'0 0.0 1013.6 3.0-7.3
2017-Mar-21 02:00N 46°48' W 071°12'0 0.0 1014.1 3.4-7.6
2017-Mar-21 01:00N 46°48' W 071°12'0 0.0 1014.4 4.0-8.0
2017-Mar-21 00:00N 46°48' W 071°12'0 0.0 1014.9 4.4-8.2 1.5
2017-Mar-20 23:00N 46°48' W 071°12'0 0.0 1015.3 4.5-6.9 1.8
2017-Mar-20 22:00N 46°48' W 071°12'0 0.0 1015.5 5.1-7.8 1.8
2017-Mar-20 21:00N 46°48' W 071°12'0 0.0 200 / 31016.2 2.1-3.2 1.4
2017-Mar-20 20:00N 46°48' W 071°12'0 0.0 1017.0 3.1-2.7
2017-Mar-20 19:00N 46°48' W 071°12'0 0.0 1017.6 2.7-4.3
2017-Mar-20 18:00N 46°48' W 071°12'0 0.0 1018.6 2.1-5.1
2017-Mar-20 17:00N 46°48' W 071°12'0 0.0 1019.6 1.6-5.4
2017-Mar-20 16:00N 46°48' W 071°12'0 0.0 1020.9 0.7-5.0
2017-Mar-20 15:00N 46°48' W 071°12'0 0.0 1021.9 0.1-5.9
2017-Mar-20 14:00N 46°48' W 071°12'0 0.0 1022.5 -2.2-4.8
2017-Mar-20 13:00N 46°48' W 071°12'0 0.0 1023.0 -4.5-5.0
2017-Mar-20 12:00N 46°48' W 071°12'0 0.0 1023.3 -6.4-6.4
2017-Mar-20 11:00N 46°48' W 071°12'0 0.0 1023.1 -7.1-7.2
2017-Mar-20 10:00N 46°48' W 071°12'0 0.0 1023.0 -6.3-6.3
2017-Mar-20 09:00N 46°48' W 071°12'0 0.0 1022.9 -5.8-5.9
2017-Mar-20 08:00N 46°48' W 071°12'0 0.0 1022.7 -5.6-5.7
2017-Mar-20 07:00N 46°48' W 071°12'0 0.0 1022.7 -4.6-4.6
2017-Mar-20 06:00N 46°48' W 071°12'0 0.0 1023.0 -3.7-3.8
2017-Mar-20 05:00N 46°48' W 071°12'0 0.0 1023.6 -2.7-3.7
2017-Mar-20 04:00N 46°48' W 071°12'0 0.0 1024.1 -1.8-2.9
2017-Mar-20 03:00N 46°48' W 071°12'0 0.0 1024.3 -1.4-2.0
2017-Mar-20 02:00N 46°48' W 071°12'0 0.0 1024.6 -1.0-2.9
2017-Mar-20 01:00N 46°48' W 071°12'0 0.0 1024.6 -0.0-6.3
2017-Mar-20 00:00N 46°48' W 071°12'0 0.0 1024.5 1.3-7.4
2017-Mar-19 23:00N 46°48' W 071°12'0 0.0 1024.8 2.6-9.0
2017-Mar-19 22:00N 46°48' W 071°12'0 0.0 1024.6 4.8-8.3
2017-Mar-19 21:00N 46°48' W 071°12'0 0.0 1024.6 7.0-9.0
2017-Mar-19 20:00N 46°48' W 071°12'0 0.0 1025.1 4.1-11.6
2017-Mar-19 19:00N 46°48' W 071°12'0 0.0 1025.5 3.3-9.0
2017-Mar-19 18:00N 46°48' W 071°12'0 0.0 1026.3 3.1-9.5
2017-Mar-19 17:00N 46°48' W 071°12'0 0.0 1027.5 2.5-8.0
2017-Mar-19 16:00N 46°48' W 071°12'0 0.0 1028.5 0.5-6.8
2017-Mar-19 15:00N 46°48' W 071°12'0 0.0 1029.6 -1.2-3.1
2017-Mar-19 14:00N 46°48' W 071°12'0 0.0 1030.1 -2.8-4.2
2017-Mar-19 13:00N 46°48' W 071°12'0 0.0 1030.3 -4.3-5.0
2017-Mar-19 12:00N 46°48' W 071°12'0 0.0 1030.0 -5.3-6.0
2017-Mar-19 11:00N 46°48' W 071°12'0 0.0 1029.6 -6.5-6.6
2017-Mar-19 10:00N 46°48' W 071°12'0 0.0 1028.8 -6.4-6.5
2017-Mar-19 09:00N 46°48' W 071°12'0 0.0 1028.4 -5.9-6.0
2017-Mar-19 08:00N 46°48' W 071°12'0 0.0 1028.1 -4.2-5.1
2017-Mar-19 07:00N 46°48' W 071°12'0 0.0 1028.3 -3.7-4.5
2017-Mar-19 06:00N 46°48' W 071°12'0 0.0 1028.4 -3.4-6.2
2017-Mar-19 05:00N 46°48' W 071°12'0 0.0 1028.1 -2.2-6.9
2017-Mar-19 04:00N 46°48' W 071°12'0 0.0 1028.0 -1.9-7.0
2017-Mar-19 03:00N 46°48' W 071°12'0 0.0 1028.2 -2.3-5.1
2017-Mar-19 01:00N 46°48' W 071°12'0 0.0 1028.0 -1.8-6.4
2017-Mar-19 00:00N 46°48' W 071°12'0 0.0 1027.5 -1.2-8.3
2017-Mar-18 23:00N 46°48' W 071°12'0 0.0 1027.0 -0.6-8.6
2017-Mar-18 22:00N 46°48' W 071°12'0 0.0 1026.6 0.3-8.8
2017-Mar-18 21:00N 46°48' W 071°12'0 0.0 1026.7 1.6-8.3
2017-Mar-18 20:00N 46°48' W 071°12'0 0.0 1027.1 1.4-9.5
2017-Mar-18 19:00N 46°48' W 071°12'0 0.0 1027.5 0.7-10.3
2017-Mar-18 18:00N 46°48' W 071°12'0 0.0 1027.7 0.9-10.1
2017-Mar-18 17:00N 46°48' W 071°12'0 0.0 1028.4 -0.7-8.7
2017-Mar-18 16:00N 46°48' W 071°12'0 0.0 1028.5 -1.8-9.3
2017-Mar-18 15:00N 46°48' W 071°12'0 0.0 1028.7 -3.4-9.3
2017-Mar-18 14:00N 46°48' W 071°12'0 0.0 1028.5 -6.0-9.1
2017-Mar-18 13:00N 46°48' W 071°12'0 0.0 1028.4 -7.0-9.3
2017-Mar-18 12:00N 46°48' W 071°12'0 0.0 1028.2 -8.7-9.8
2017-Mar-18 11:00N 46°48' W 071°12'0 0.0 1027.7 -9.7-10.2
2017-Mar-18 10:00N 46°48' W 071°12'0 0.0 1027.3 -9.4-10.3
2017-Mar-18 09:00N 46°48' W 071°12'0 0.0 1026.8 -8.8-10.0
2017-Mar-18 08:00N 46°48' W 071°12'0 0.0 1026.1 -8.0-9.7
2017-Mar-18 07:00N 46°48' W 071°12'0 0.0 1025.7 -7.0-9.0
2017-Mar-18 05:00N 46°48' W 071°12'0 0.0 1024.9 -5.1-11.0
2017-Mar-18 04:00N 46°48' W 071°12'0 0.0 1024.3 -4.7-11.3
2017-Mar-18 03:00N 46°48' W 071°12'0 0.0 1023.8 -3.4-10.9
2017-Mar-18 02:00N 46°48' W 071°12'0 0.0 1023.3 -2.0-11.2
2017-Mar-18 01:00N 46°48' W 071°12'0 0.0 1023.0 -1.5-9.0
2017-Mar-18 00:00N 46°48' W 071°12'0 0.0 1022.2 -2.0-8.9
2017-Mar-17 23:00N 46°48' W 071°12'0 0.0 1021.2 -1.4-8.6
2017-Mar-17 22:00N 46°48' W 071°12'0 0.0 1020.2 -0.0-10.4
2017-Mar-17 21:00N 46°48' W 071°12'0 0.0 1019.6 -1.2-9.4
2017-Mar-17 20:00N 46°48' W 071°12'0 0.0 1019.3 -2.2-10.1
2017-Mar-17 19:00N 46°48' W 071°12'0 0.0 1019.2 -2.5-9.9
2017-Mar-17 18:00N 46°48' W 071°12'0 0.0 1019.2 -3.3-10.2
2017-Mar-17 17:00N 46°48' W 071°12'0 0.0 1019.6 -4.7-10.4
2017-Mar-17 16:00N 46°48' W 071°12'0 0.0 1019.5 -5.7-10.3 1.6
2017-Mar-17 15:00N 46°48' W 071°12'0 0.0 210 / 11019.4 -6.1-11.6 1.8
2017-Mar-17 14:00N 46°48' W 071°12'1413.7 050 / 101018.1 -7.6-12.5 1.4
2017-Mar-17 13:00N 46°54' W 070°54'2019.8 030 / 141016.9 -10.2-11.0 1.4
2017-Mar-17 12:00N 47°12' W 070°42'1414.5 030 / 161016.5 -6.4-9.4 1.3
2017-Mar-17 11:00N 47°24' W 070°30'2020.2 050 / 171015.3 -7.7-11.8 0.8
2017-Mar-17 10:00N 47°36' W 070°06'1414.5 040 / 161014.0 -7.7-10.5 0.6
2017-Mar-17 09:00N 47°48' W 069°54'1010.0 030 / 141013.5 -7.6-10.4 0.5
2017-Mar-17 08:00N 47°54' W 069°42'2019.7 030 / 161012.2 -7.6-9.4 0.8
2017-Mar-17 07:00N 48°12' W 069°30'1414.4 040 / 151011.7 -7.7-9.9 0.1
2017-Mar-17 06:00N 48°24' W 069°18'   040 / 151010.8 -7.2-9.4 0.1
Track history (hours):
 
Tides and Currents Weather Stations Pressure Air Temp Water Temp Dewpoint Dewpoint Depression Visibility Wind Speed Wind Dir Waves Ship Positions

Sarah Desgagnes

Last reported at 2017-Mar-27 06:00 UTC. Time now 2017-Mar-27 06:37 UTC.
Position N 46°06' W 073°06'.

Length 147 m; draft 6.3 m.

Type: Ship. MMSI: 316012308.

Wind from 050 at 13 knots

Air temperature -0.8 ° C
Dewpoint -2.6 ° C
Water temperature 1.7 ° C

Date/timePositionNaut miles runAvg speedWind from/ knotsBaromVisibWave heightAir tempDewpointWater temp
2017-Mar-27 06:00N 46°06' W 073°06'1514.6 050 / 13 -0.8-2.6 1.7
2017-Mar-27 05:00N 45°54' W 073°18'1514.6 040 / 11 -0.8-2.3 1.7
2017-Mar-27 04:00N 45°42' W 073°30'6 6.0 060 / 10 -0.4-3.4 1.6
2017-Mar-27 03:00N 45°36' W 073°30'0 0.0 050 / 11 -0.7-5.0
2017-Mar-27 02:00N 45°36' W 073°30'0 0.0 040 / 6 -0.0-6.9
2017-Mar-27 01:00N 45°36' W 073°30'0 0.0 050 / 9 -0.2-7.6
2017-Mar-27 00:00N 45°36' W 073°30'0 0.0 050 / 8 -0.2-7.4
2017-Mar-26 23:00N 45°36' W 073°30'0 0.0 060 / 7 -0.1-7.8
2017-Mar-26 22:00N 45°36' W 073°30'0 0.0 050 / 11 -0.0-10.4
2017-Mar-26 21:00N 45°36' W 073°30'0 0.0 050 / 10 -0.2-10.0
2017-Mar-26 20:00N 45°36' W 073°30'0 0.0 040 / 15 -0.4-11.4
2017-Mar-26 19:00N 45°36' W 073°30'0 0.0 040 / 10 0.5-11.4
2017-Mar-26 18:00N 45°36' W 073°30'0 0.0 040 / 13 -1.6-12.8
2017-Mar-26 17:00N 45°36' W 073°30'0 0.0 040 / 6 -1.7-11.4
2017-Mar-26 16:00N 45°36' W 073°30'0 0.0 040 / 12 -3.5-13.8
2017-Mar-26 15:00N 45°36' W 073°30'0 0.0 040 / 14 -4.4-13.9
2017-Mar-26 14:00N 45°36' W 073°30'0 0.0 050 / 7 -3.5-12.9
2017-Mar-26 13:00N 45°36' W 073°30'0 0.0 050 / 9 -4.8-13.4
2017-Mar-26 12:00N 45°36' W 073°30'0 0.0 040 / 12 -6.0-14.9
2017-Mar-26 11:00N 45°36' W 073°30'0 0.0 050 / 8 -5.6-13.5
2017-Mar-26 10:00N 45°36' W 073°30'0 0.0 040 / 9 -5.0-13.6
2017-Mar-26 09:00N 45°36' W 073°30'0 0.0 040 / 7 -4.0-12.8
2017-Mar-26 08:00N 45°36' W 073°30'0 0.0 040 / 4 -3.6-11.7
2017-Mar-26 07:00N 45°36' W 073°30'0 0.0 040 / 2 -3.8-10.6
2017-Mar-26 06:00N 45°36' W 073°30'0 0.0 040 / 5 -3.7-8.0
2017-Mar-26 05:00N 45°36' W 073°30'0 0.0 020 / 5 -2.2-6.9
2017-Mar-26 04:00N 45°36' W 073°30'0 0.0 -2.3-5.9
2017-Mar-26 02:00N 45°36' W 073°30'0 0.0 -1.3-8.9
2017-Mar-26 01:00N 45°36' W 073°30'0 0.0 190 / 4 -0.5-8.2
2017-Mar-26 00:00N 45°36' W 073°30'0 0.0 180 / 6 0.1-8.9
2017-Mar-25 23:00N 45°36' W 073°30'0 0.0 190 / 3 1.8-10.2
2017-Mar-25 22:00N 45°36' W 073°30'0 0.0 030 / 2 3.8-11.8
2017-Mar-25 21:00N 45°36' W 073°30'0 0.0 040 / 2 3.7-12.8
2017-Mar-25 20:00N 45°36' W 073°30'0 0.0 050 / 2 3.6-11.7
2017-Mar-25 19:00N 45°36' W 073°30'0 0.0 4.5-8.1
2017-Mar-25 18:00N 45°36' W 073°30'0 0.0 050 / 5 1.7-9.3
2017-Mar-25 17:00N 45°36' W 073°30'0 0.0 050 / 4 0.7-6.6
2017-Mar-25 16:00N 45°36' W 073°30'0 0.0 040 / 11 -0.6-7.4
2017-Mar-25 15:00N 45°36' W 073°30'0 0.0 030 / 9 -0.1-7.5
2017-Mar-25 14:00N 45°36' W 073°30'0 0.0 020 / 5 1.2-3.5
2017-Mar-25 13:00N 45°36' W 073°30'0 0.0 040 / 6 -0.7-2.2
2017-Mar-25 12:00N 45°36' W 073°30'0 0.0 310 / 2 -0.8-2.1
2017-Mar-25 11:00N 45°36' W 073°30'0 0.0 -1.3-2.3
2017-Mar-25 10:00N 45°36' W 073°30'0 0.0 290 / 2 -1.5-2.1
2017-Mar-25 09:00N 45°36' W 073°30'0 0.0 280 / 2 -1.3-2.0
2017-Mar-25 08:00N 45°36' W 073°30'0 0.0 240 / 1 -0.9-1.6
2017-Mar-25 07:00N 45°36' W 073°30'0 0.0 300 / 1 -0.5-1.0
2017-Mar-25 06:00N 45°36' W 073°30'0 0.0 270 / 2 -0.2-0.6
2017-Mar-25 05:00N 45°36' W 073°30'0 0.0 240 / 1 -0.3-0.6
2017-Mar-25 04:00N 45°36' W 073°30'0 0.0 310 / 2 -0.3-0.6
2017-Mar-25 03:00N 45°36' W 073°30'0 0.0 290 / 2 -0.3-0.5
2017-Mar-25 02:00N 45°36' W 073°30'0 0.0 310 / 1 -0.0-0.1
2017-Mar-25 01:00N 45°36' W 073°30'0 0.0 340 / 2 0.1-0.0
2017-Mar-25 00:00N 45°36' W 073°30'0 0.0 040 / 4 -0.6-0.8
2017-Mar-24 23:00N 45°36' W 073°30'0 0.0 -0.4-0.5
2017-Mar-24 22:00N 45°36' W 073°30'0 0.0 170 / 4 -0.7-0.9
2017-Mar-24 21:00N 45°36' W 073°30'0 0.0 180 / 7 -0.8-1.2
2017-Mar-24 20:00N 45°36' W 073°30'0 0.0 170 / 11 -0.9-1.8
2017-Mar-24 19:00N 45°36' W 073°30'0 0.0 170 / 13 -0.4-2.8
2017-Mar-24 18:00N 45°36' W 073°30'0 0.0 180 / 12 0.1-2.5
2017-Mar-24 17:00N 45°36' W 073°30'0 0.0 180 / 12 -0.5-2.1
2017-Mar-24 16:00N 45°36' W 073°30'0 0.0 180 / 12 -1.0-2.4
2017-Mar-24 15:00N 45°36' W 073°30'0 0.0 170 / 11 -1.9-3.0
2017-Mar-24 14:00N 45°36' W 073°30'0 0.0 170 / 11 -2.1-3.8 1.6
2017-Mar-24 13:00N 45°36' W 073°30'0 0.0 120 / 5 -1.5-6.6
2017-Mar-24 12:00N 45°36' W 073°30'0 0.0 180 / 6 -2.3-4.7
2017-Mar-24 11:00N 45°36' W 073°30'0 0.0 190 / 13 -1.4-8.6
2017-Mar-24 10:00N 45°36' W 073°30'0 0.0 180 / 13 -1.7-9.8
2017-Mar-24 09:00N 45°36' W 073°30'0 0.0 170 / 6 -1.8-10.5
2017-Mar-24 08:00N 45°36' W 073°30'0 0.0 190 / 7 -1.7-9.6
2017-Mar-24 07:00N 45°36' W 073°30'0 0.0 190 / 9 -1.5-9.9
2017-Mar-24 06:00N 45°36' W 073°30'0 0.0 190 / 11 -1.2-9.4
2017-Mar-24 05:00N 45°36' W 073°30'0 0.0 220 / 8 -0.3-10.1
2017-Mar-24 04:00N 45°36' W 073°30'0 0.0 240 / 9 0.1-10.7
2017-Mar-24 03:00N 45°36' W 073°30'0 0.0 220 / 5 0.3-13.7
2017-Mar-24 02:00N 45°36' W 073°30'0 0.0 230 / 7 0.1-14.6
2017-Mar-24 01:00N 45°36' W 073°30'0 0.0 240 / 8 -0.0-14.4
2017-Mar-24 00:00N 45°36' W 073°30'0 0.0 250 / 10 0.1-14.5
2017-Mar-23 23:00N 45°36' W 073°30'0 0.0 250 / 9 0.7-15.2
2017-Mar-23 22:00N 45°36' W 073°30'0 0.0 240 / 11 1.0-15.1
2017-Mar-23 21:00N 45°36' W 073°30'0 0.0 260 / 10 0.5-14.7
2017-Mar-23 20:00N 45°36' W 073°30'0 0.0 250 / 11 -0.4-15.7
2017-Mar-23 19:00N 45°36' W 073°30'0 0.0 260 / 11 -1.4-16.0
2017-Mar-23 18:00N 45°36' W 073°30'0 0.0 270 / 13 -2.3-16.5
2017-Mar-23 17:00N 45°36' W 073°30'0 0.0 300 / 2 1.2-14.8
2017-Mar-23 16:00N 45°36' W 073°30'0 0.0 300 / 13 -4.5-17.5
2017-Mar-23 15:00N 45°36' W 073°30'0 0.0 -5.6-18.0
2017-Mar-23 14:00N 45°36' W 073°30'0 0.0 -7.4-17.6
2017-Mar-23 13:00N 45°36' W 073°30'0 0.0 -8.8-18.4
2017-Mar-23 12:00N 45°36' W 073°30'0 0.0 -9.8-18.3
2017-Mar-23 11:00N 45°36' W 073°30'0 0.0 -10.4-18.9
2017-Mar-23 10:00N 45°36' W 073°30'0 0.0 -10.5-19.1
2017-Mar-23 09:00N 45°36' W 073°30'0 0.0 -9.8-19.5
2017-Mar-23 08:00N 45°36' W 073°30'0 0.0 -9.4-18.9
2017-Mar-23 07:00N 45°36' W 073°30'0 0.0 -9.2-19.9
2017-Mar-23 06:00N 45°36' W 073°30'0 0.0 -9.4-19.7
2017-Mar-23 05:00N 45°36' W 073°30'0 0.0 -9.1-19.8
2017-Mar-23 04:00N 45°36' W 073°30'0 0.0 -9.0-20.2 0.9
2017-Mar-23 03:00N 45°36' W 073°30'0 0.0 -8.6-20.3 1.4
2017-Mar-23 02:00N 45°36' W 073°30'7 7.3 280 / 2 -7.9-19.9 1.8
2017-Mar-23 01:00N 45°42' W 073°24'1312.7 020 / 8 -8.0-18.8 1.6
2017-Mar-23 00:00N 45°54' W 073°18'7 7.3 020 / 8 -7.3-18.5 1.5
2017-Mar-22 23:00N 46°00' W 073°12'1413.9 040 / 8 -7.3-19.0 1.7
2017-Mar-22 22:00N 46°06' W 072°54'7 7.3 360 / 11 -6.8-18.4 1.7
2017-Mar-22 21:00N 46°12' W 072°48'1413.8 040 / 10 -7.8-19.1 1.7
2017-Mar-22 20:00N 46°18' W 072°30'7 7.3 020 / 7 -8.0-21.5 1.6
2017-Mar-22 19:00N 46°24' W 072°24'1010.2 050 / 8 -9.3-22.0 1.8
2017-Mar-22 18:00N 46°30' W 072°12'1413.8 030 / 9 -10.3-21.1 1.8
2017-Mar-22 17:00N 46°36' W 071°54'7 7.3 030 / 9 -10.9-20.0 1.7
2017-Mar-22 16:00N 46°42' W 071°48'1212.3 110 / 9 -11.7-20.8 1.5
2017-Mar-22 15:00N 46°42' W 071°30'1413.7 060 / 9 -11.6-20.5 1.4
2017-Mar-22 14:00N 46°48' W 071°12'0 0.0 010 / 101016.8 -11.4-17.5 1.7
2017-Mar-22 13:00N 46°48' W 071°12'0 0.0 1015.4 -11.4-14.3
2017-Mar-22 12:00N 46°48' W 071°12'0 0.0 1013.7 -11.3-12.5
2017-Mar-22 11:00N 46°48' W 071°12'0 0.0 1011.7 -10.6-11.0
2017-Mar-22 10:00N 46°48' W 071°12'0 0.0 1009.2 -9.2-9.3
2017-Mar-22 09:00N 46°48' W 071°12'0 0.0 1006.1 -6.7-10.1
2017-Mar-22 08:00N 46°48' W 071°12'0 0.0 1004.8 -3.7-8.9
2017-Mar-22 07:00N 46°48' W 071°12'0 0.0 1004.0 0.3 0.3
2017-Mar-22 06:00N 46°48' W 071°12'0 0.0 1004.6 0.9 0.8
2017-Mar-22 05:00N 46°48' W 071°12'0 0.0 1005.3 0.5 0.4
2017-Mar-22 04:00N 46°48' W 071°12'0 0.0 1005.6 1.3 0.4
2017-Mar-22 03:00N 46°48' W 071°12'0 0.0 1006.6 2.0-0.5
2017-Mar-22 02:00N 46°48' W 071°12'0 0.0 1007.1 2.9-1.4
2017-Mar-22 01:00N 46°48' W 071°12'0 0.0 1007.2 3.9-3.0
2017-Mar-22 00:00N 46°48' W 071°12'0 0.0 1006.9 5.0-4.4
2017-Mar-21 23:00N 46°48' W 071°12'0 0.0 1006.3 3.5-4.4
2017-Mar-21 22:00N 46°48' W 071°12'0 0.0 1006.1 6.1-10.4
2017-Mar-21 21:00N 46°48' W 071°12'0 0.0 1006.4 5.7-7.9
2017-Mar-21 20:00N 46°48' W 071°12'0 0.0 1006.9 4.4-6.2
2017-Mar-21 19:00N 46°48' W 071°12'0 0.0 1007.6 4.2-6.6
2017-Mar-21 18:00N 46°48' W 071°12'0 0.0 1008.5 6.6-6.2
2017-Mar-21 17:00N 46°48' W 071°12'0 0.0 1009.3 4.8-5.9
2017-Mar-21 16:00N 46°48' W 071°12'0 0.0 1010.1 4.0-4.7
2017-Mar-21 15:00N 46°48' W 071°12'0 0.0 1011.0 5.4-3.8
2017-Mar-21 14:00N 46°48' W 071°12'0 0.0 1011.5 1.6-1.1
2017-Mar-21 13:00N 46°48' W 071°12'0 0.0 1011.6 1.3-1.7
2017-Mar-21 12:00N 46°48' W 071°12'0 0.0 1011.9 1.3-4.2
2017-Mar-21 11:00N 46°48' W 071°12'0 0.0 1011.8 1.2-4.3
2017-Mar-21 10:00N 46°48' W 071°12'0 0.0 1011.8 1.4-4.5
2017-Mar-21 09:00N 46°48' W 071°12'0 0.0 1011.7 1.7-5.4
2017-Mar-21 08:00N 46°48' W 071°12'0 0.0 1011.8 1.9-5.4
2017-Mar-21 07:00N 46°48' W 071°12'0 0.0 1011.9 2.3-5.8
2017-Mar-21 06:00N 46°48' W 071°12'0 0.0 1012.2 2.4-6.2
2017-Mar-21 05:00N 46°48' W 071°12'0 0.0 1012.6 2.7-6.4
2017-Mar-21 04:00N 46°48' W 071°12'0 0.0 1013.1 2.8-6.6
2017-Mar-21 03:00N 46°48' W 071°12'0 0.0 1013.6 3.0-7.3
2017-Mar-21 02:00N 46°48' W 071°12'0 0.0 1014.1 3.4-7.6
2017-Mar-21 01:00N 46°48' W 071°12'0 0.0 1014.4 4.0-8.0
2017-Mar-21 00:00N 46°48' W 071°12'0 0.0 1014.9 4.4-8.2 1.5
2017-Mar-20 23:00N 46°48' W 071°12'0 0.0 1015.3 4.5-6.9 1.8
2017-Mar-20 22:00N 46°48' W 071°12'0 0.0 1015.5 5.1-7.8 1.8
2017-Mar-20 21:00N 46°48' W 071°12'0 0.0 200 / 31016.2 2.1-3.2 1.4
2017-Mar-20 20:00N 46°48' W 071°12'0 0.0 1017.0 3.1-2.7
2017-Mar-20 19:00N 46°48' W 071°12'0 0.0 1017.6 2.7-4.3
2017-Mar-20 18:00N 46°48' W 071°12'0 0.0 1018.6 2.1-5.1
2017-Mar-20 17:00N 46°48' W 071°12'0 0.0 1019.6 1.6-5.4
2017-Mar-20 16:00N 46°48' W 071°12'0 0.0 1020.9 0.7-5.0
2017-Mar-20 15:00N 46°48' W 071°12'0 0.0 1021.9 0.1-5.9
2017-Mar-20 14:00N 46°48' W 071°12'0 0.0 1022.5 -2.2-4.8
2017-Mar-20 13:00N 46°48' W 071°12'0 0.0 1023.0 -4.5-5.0
2017-Mar-20 12:00N 46°48' W 071°12'0 0.0 1023.3 -6.4-6.4
2017-Mar-20 11:00N 46°48' W 071°12'0 0.0 1023.1 -7.1-7.2
2017-Mar-20 10:00N 46°48' W 071°12'0 0.0 1023.0 -6.3-6.3
2017-Mar-20 09:00N 46°48' W 071°12'0 0.0 1022.9 -5.8-5.9
2017-Mar-20 08:00N 46°48' W 071°12'0 0.0 1022.7 -5.6-5.7
2017-Mar-20 07:00N 46°48' W 071°12'0 0.0 1022.7 -4.6-4.6
2017-Mar-20 06:00N 46°48' W 071°12'0 0.0 1023.0 -3.7-3.8
2017-Mar-20 05:00N 46°48' W 071°12'0 0.0 1023.6 -2.7-3.7
2017-Mar-20 04:00N 46°48' W 071°12'0 0.0 1024.1 -1.8-2.9
2017-Mar-20 03:00N 46°48' W 071°12'0 0.0 1024.3 -1.4-2.0
2017-Mar-20 02:00N 46°48' W 071°12'0 0.0 1024.6 -1.0-2.9
2017-Mar-20 01:00N 46°48' W 071°12'0 0.0 1024.6 -0.0-6.3
2017-Mar-20 00:00N 46°48' W 071°12'0 0.0 1024.5 1.3-7.4
2017-Mar-19 23:00N 46°48' W 071°12'0 0.0 1024.8 2.6-9.0
2017-Mar-19 22:00N 46°48' W 071°12'0 0.0 1024.6 4.8-8.3
2017-Mar-19 21:00N 46°48' W 071°12'0 0.0 1024.6 7.0-9.0
2017-Mar-19 20:00N 46°48' W 071°12'0 0.0 1025.1 4.1-11.6
2017-Mar-19 19:00N 46°48' W 071°12'0 0.0 1025.5 3.3-9.0
2017-Mar-19 18:00N 46°48' W 071°12'0 0.0 1026.3 3.1-9.5
2017-Mar-19 17:00N 46°48' W 071°12'0 0.0 1027.5 2.5-8.0
2017-Mar-19 16:00N 46°48' W 071°12'0 0.0 1028.5 0.5-6.8
2017-Mar-19 15:00N 46°48' W 071°12'0 0.0 1029.6 -1.2-3.1
2017-Mar-19 14:00N 46°48' W 071°12'0 0.0 1030.1 -2.8-4.2
2017-Mar-19 13:00N 46°48' W 071°12'0 0.0 1030.3 -4.3-5.0
2017-Mar-19 12:00N 46°48' W 071°12'0 0.0 1030.0 -5.3-6.0
2017-Mar-19 11:00N 46°48' W 071°12'0 0.0 1029.6 -6.5-6.6
2017-Mar-19 10:00N 46°48' W 071°12'0 0.0 1028.8 -6.4-6.5
2017-Mar-19 09:00N 46°48' W 071°12'0 0.0 1028.4 -5.9-6.0
2017-Mar-19 08:00N 46°48' W 071°12'0 0.0 1028.1 -4.2-5.1
2017-Mar-19 07:00N 46°48' W 071°12'0 0.0 1028.3 -3.7-4.5
2017-Mar-19 06:00N 46°48' W 071°12'0 0.0 1028.4 -3.4-6.2
2017-Mar-19 05:00N 46°48' W 071°12'0 0.0 1028.1 -2.2-6.9
2017-Mar-19 04:00N 46°48' W 071°12'0 0.0 1028.0 -1.9-7.0
2017-Mar-19 03:00N 46°48' W 071°12'0 0.0 1028.2 -2.3-5.1
2017-Mar-19 01:00N 46°48' W 071°12'0 0.0 1028.0 -1.8-6.4
2017-Mar-19 00:00N 46°48' W 071°12'0 0.0 1027.5 -1.2-8.3
2017-Mar-18 23:00N 46°48' W 071°12'0 0.0 1027.0 -0.6-8.6
2017-Mar-18 22:00N 46°48' W 071°12'0 0.0 1026.6 0.3-8.8
2017-Mar-18 21:00N 46°48' W 071°12'0 0.0 1026.7 1.6-8.3
2017-Mar-18 20:00N 46°48' W 071°12'0 0.0 1027.1 1.4-9.5
2017-Mar-18 19:00N 46°48' W 071°12'0 0.0 1027.5 0.7-10.3
2017-Mar-18 18:00N 46°48' W 071°12'0 0.0 1027.7 0.9-10.1
2017-Mar-18 17:00N 46°48' W 071°12'0 0.0 1028.4 -0.7-8.7
2017-Mar-18 16:00N 46°48' W 071°12'0 0.0 1028.5 -1.8-9.3
2017-Mar-18 15:00N 46°48' W 071°12'0 0.0 1028.7 -3.4-9.3
2017-Mar-18 14:00N 46°48' W 071°12'0 0.0 1028.5 -6.0-9.1
2017-Mar-18 13:00N 46°48' W 071°12'0 0.0 1028.4 -7.0-9.3
2017-Mar-18 12:00N 46°48' W 071°12'0 0.0 1028.2 -8.7-9.8
2017-Mar-18 11:00N 46°48' W 071°12'0 0.0 1027.7 -9.7-10.2
2017-Mar-18 10:00N 46°48' W 071°12'0 0.0 1027.3 -9.4-10.3
2017-Mar-18 09:00N 46°48' W 071°12'0 0.0 1026.8 -8.8-10.0
2017-Mar-18 08:00N 46°48' W 071°12'0 0.0 1026.1 -8.0-9.7
2017-Mar-18 07:00N 46°48' W 071°12'0 0.0 1025.7 -7.0-9.0
2017-Mar-18 05:00N 46°48' W 071°12'0 0.0 1024.9 -5.1-11.0
2017-Mar-18 04:00N 46°48' W 071°12'0 0.0 1024.3 -4.7-11.3
2017-Mar-18 03:00N 46°48' W 071°12'0 0.0 1023.8 -3.4-10.9
2017-Mar-18 02:00N 46°48' W 071°12'0 0.0 1023.3 -2.0-11.2
2017-Mar-18 01:00N 46°48' W 071°12'0 0.0 1023.0 -1.5-9.0
2017-Mar-18 00:00N 46°48' W 071°12'0 0.0 1022.2 -2.0-8.9
2017-Mar-17 23:00N 46°48' W 071°12'0 0.0 1021.2 -1.4-8.6
2017-Mar-17 22:00N 46°48' W 071°12'0 0.0 1020.2 -0.0-10.4
2017-Mar-17 21:00N 46°48' W 071°12'0 0.0 1019.6 -1.2-9.4
2017-Mar-17 20:00N 46°48' W 071°12'0 0.0 1019.3 -2.2-10.1
2017-Mar-17 19:00N 46°48' W 071°12'0 0.0 1019.2 -2.5-9.9
2017-Mar-17 18:00N 46°48' W 071°12'0 0.0 1019.2 -3.3-10.2
2017-Mar-17 17:00N 46°48' W 071°12'0 0.0 1019.6 -4.7-10.4
2017-Mar-17 16:00N 46°48' W 071°12'0 0.0 1019.5 -5.7-10.3 1.6
2017-Mar-17 15:00N 46°48' W 071°12'0 0.0 210 / 11019.4 -6.1-11.6 1.8
2017-Mar-17 14:00N 46°48' W 071°12'1413.7 050 / 101018.1 -7.6-12.5 1.4
2017-Mar-17 13:00N 46°54' W 070°54'2019.8 030 / 141016.9 -10.2-11.0 1.4
2017-Mar-17 12:00N 47°12' W 070°42'1414.5 030 / 161016.5 -6.4-9.4 1.3
2017-Mar-17 11:00N 47°24' W 070°30'2020.2 050 / 171015.3 -7.7-11.8 0.8
2017-Mar-17 10:00N 47°36' W 070°06'1414.5 040 / 161014.0 -7.7-10.5 0.6
2017-Mar-17 09:00N 47°48' W 069°54'1010.0 030 / 141013.5 -7.6-10.4 0.5
2017-Mar-17 08:00N 47°54' W 069°42'2019.7 030 / 161012.2 -7.6-9.4 0.8
2017-Mar-17 07:00N 48°12' W 069°30'1414.4 040 / 151011.7 -7.7-9.9 0.1
2017-Mar-17 06:00N 48°24' W 069°18'   040 / 151010.8 -7.2-9.4 0.1

Dump ship's entire track history